SYR weather

Public forecast

Using degrees Fahrenheit for public forecast. Weather courtesy of forecast.io.

Current aviation weather report (METAR) for Syracuse Hancock International Airport

Retrieved 2020/08/12 22:54 UTC (49 minutes ago):

KSYR 122254Z 32005KT 10SM SCT180 BKN220 27/16 A3009 RMK AO2 SLP183 T02720156

Aviation forecast (TAF) for Syracuse Hancock International Airport

Retrieved 2020/08/12 18:36 UTC (5 hours ago):

TAF KSYR 121735Z 1218/1318 31006KT P6SM FEW040 SCT250 FM130000 00000KT P6SM FEW250